sensor_id;sensor_type;location;lat;lon;timestamp;temperature;humidity
19864;DHT22;10094;48.820;9.226;2023-10-13T00:06:32;18.20;99.90
19864;DHT22;10094;48.820;9.226;2023-10-13T00:13:15;18.30;99.90
19864;DHT22;10094;48.820;9.226;2023-10-13T00:20:04;18.20;99.90
19864;DHT22;10094;48.820;9.226;2023-10-13T00:26:54;18.00;99.90
19864;DHT22;10094;48.820;9.226;2023-10-13T00:33:38;17.90;99.90
19864;DHT22;10094;48.820;9.226;2023-10-13T00:40:21;17.70;99.90
19864;DHT22;10094;48.820;9.226;2023-10-13T00:47:30;17.20;99.90
19864;DHT22;10094;48.820;9.226;2023-10-13T00:54:19;17.00;99.90
19864;DHT22;10094;48.820;9.226;2023-10-13T01:01:09;16.80;99.90
19864;DHT22;10094;48.820;9.226;2023-10-13T01:08:01;16.50;99.90
19864;DHT22;10094;48.820;9.226;2023-10-13T01:14:44;16.50;99.90
19864;DHT22;10094;48.820;9.226;2023-10-13T01:21:32;16.50;99.90
19864;DHT22;10094;48.820;9.226;2023-10-13T01:28:16;16.50;99.90
19864;DHT22;10094;48.820;9.226;2023-10-13T01:34:59;16.60;99.90
19864;DHT22;10094;48.820;9.226;2023-10-13T01:41:48;16.40;99.90
19864;DHT22;10094;48.820;9.226;2023-10-13T01:48:37;16.20;99.90
19864;DHT22;10094;48.820;9.226;2023-10-13T01:55:22;16.20;99.90
19864;DHT22;10094;48.820;9.226;2023-10-13T02:02:04;16.10;99.90
19864;DHT22;10094;48.820;9.226;2023-10-13T02:08:50;16.00;99.90
19864;DHT22;10094;48.820;9.226;2023-10-13T02:15:39;16.00;99.90
19864;DHT22;10094;48.820;9.226;2023-10-13T02:22:24;15.80;99.90
19864;DHT22;10094;48.820;9.226;2023-10-13T02:29:10;15.80;99.90
19864;DHT22;10094;48.820;9.226;2023-10-13T02:36:00;15.70;99.90
19864;DHT22;10094;48.820;9.226;2023-10-13T02:42:45;15.60;99.90
19864;DHT22;10094;48.820;9.226;2023-10-13T02:49:29;15.40;99.90
19864;DHT22;10094;48.820;9.226;2023-10-13T02:56:16;15.50;99.90
19864;DHT22;10094;48.820;9.226;2023-10-13T03:03:04;15.40;99.90
19864;DHT22;10094;48.820;9.226;2023-10-13T03:09:49;15.30;99.90
19864;DHT22;10094;48.820;9.226;2023-10-13T03:16:35;15.10;99.90
19864;DHT22;10094;48.820;9.226;2023-10-13T03:23:19;15.00;99.90
19864;DHT22;10094;48.820;9.226;2023-10-13T03:30:02;15.10;99.90
19864;DHT22;10094;48.820;9.226;2023-10-13T03:36:51;15.10;99.90
19864;DHT22;10094;48.820;9.226;2023-10-13T03:43:40;15.10;99.90
19864;DHT22;10094;48.820;9.226;2023-10-13T03:50:35;15.00;99.90
19864;DHT22;10094;48.820;9.226;2023-10-13T03:57:18;14.90;99.90
19864;DHT22;10094;48.820;9.226;2023-10-13T04:04:01;14.80;99.90
19864;DHT22;10094;48.820;9.226;2023-10-13T04:10:55;14.90;99.90
19864;DHT22;10094;48.820;9.226;2023-10-13T04:17:38;14.90;99.90
19864;DHT22;10094;48.820;9.226;2023-10-13T04:24:27;14.80;99.90
19864;DHT22;10094;48.820;9.226;2023-10-13T04:31:21;14.70;99.90
19864;DHT22;10094;48.820;9.226;2023-10-13T04:38:27;14.60;99.90
19864;DHT22;10094;48.820;9.226;2023-10-13T04:45:20;14.50;99.90
19864;DHT22;10094;48.820;9.226;2023-10-13T04:52:12;14.50;99.90
19864;DHT22;10094;48.820;9.226;2023-10-13T04:58:55;14.60;99.90
19864;DHT22;10094;48.820;9.226;2023-10-13T05:05:57;14.60;99.90
19864;DHT22;10094;48.820;9.226;2023-10-13T05:13:15;14.60;99.90
19864;DHT22;10094;48.820;9.226;2023-10-13T05:20:16;14.60;99.90
19864;DHT22;10094;48.820;9.226;2023-10-13T05:27:17;14.70;99.90
19864;DHT22;10094;48.820;9.226;2023-10-13T05:34:18;14.80;99.90
19864;DHT22;10094;48.820;9.226;2023-10-13T05:41:19;14.90;99.90
19864;DHT22;10094;48.820;9.226;2023-10-13T05:48:19;14.90;99.90
19864;DHT22;10094;48.820;9.226;2023-10-13T05:55:16;15.10;99.90
19864;DHT22;10094;48.820;9.226;2023-10-13T06:02:18;15.20;99.90
19864;DHT22;10094;48.820;9.226;2023-10-13T06:09:19;15.60;99.90
19864;DHT22;10094;48.820;9.226;2023-10-13T06:16:20;16.00;99.90
19864;DHT22;10094;48.820;9.226;2023-10-13T06:23:21;16.40;99.90
19864;DHT22;10094;48.820;9.226;2023-10-13T06:30:22;16.60;99.90
19864;DHT22;10094;48.820;9.226;2023-10-13T06:37:05;17.00;99.90
19864;DHT22;10094;48.820;9.226;2023-10-13T06:44:07;17.20;99.90
19864;DHT22;10094;48.820;9.226;2023-10-13T06:50:57;17.60;99.90
19864;DHT22;10094;48.820;9.226;2023-10-13T06:57:46;18.00;99.90
19864;DHT22;10094;48.820;9.226;2023-10-13T07:04:29;18.40;99.90
19864;DHT22;10094;48.820;9.226;2023-10-13T07:11:11;18.40;99.90
19864;DHT22;10094;48.820;9.226;2023-10-13T07:18:01;20.70;99.90
19864;DHT22;10094;48.820;9.226;2023-10-13T07:24:49;23.80;93.30
19864;DHT22;10094;48.820;9.226;2023-10-13T07:31:32;25.20;91.50
19864;DHT22;10094;48.820;9.226;2023-10-13T07:38:15;26.80;88.70
19864;DHT22;10094;48.820;9.226;2023-10-13T07:44:58;26.90;85.80
19864;DHT22;10094;48.820;9.226;2023-10-13T07:51:40;28.10;83.20
19864;DHT22;10094;48.820;9.226;2023-10-13T07:58:33;27.20;81.50
19864;DHT22;10094;48.820;9.226;2023-10-13T08:05:16;26.90;80.80
19864;DHT22;10094;48.820;9.226;2023-10-13T08:12:21;28.50;79.90
19864;DHT22;10094;48.820;9.226;2023-10-13T08:19:04;28.60;79.20
19864;DHT22;10094;48.820;9.226;2023-10-13T08:25:48;29.80;77.30
19864;DHT22;10094;48.820;9.226;2023-10-13T08:32:49;30.30;75.30
19864;DHT22;10094;48.820;9.226;2023-10-13T08:39:41;29.90;74.60
19864;DHT22;10094;48.820;9.226;2023-10-13T08:47:02;30.20;73.20
19864;DHT22;10094;48.820;9.226;2023-10-13T08:53:47;30.90;72.30
19864;DHT22;10094;48.820;9.226;2023-10-13T09:00:42;30.50;72.40
19864;DHT22;10094;48.820;9.226;2023-10-13T09:07:54;31.20;69.70
19864;DHT22;10094;48.820;9.226;2023-10-13T09:14:57;30.40;70.70
19864;DHT22;10094;48.820;9.226;2023-10-13T09:21:41;32.10;68.90
19864;DHT22;10094;48.820;9.226;2023-10-13T09:28:27;32.60;67.20
19864;DHT22;10094;48.820;9.226;2023-10-13T09:35:17;32.70;66.80
19864;DHT22;10094;48.820;9.226;2023-10-13T09:42:01;32.50;66.00
19864;DHT22;10094;48.820;9.226;2023-10-13T09:48:47;33.00;64.80
19864;DHT22;10094;48.820;9.226;2023-10-13T09:55:34;31.70;64.50
19864;DHT22;10094;48.820;9.226;2023-10-13T10:02:21;31.50;63.40
19864;DHT22;10094;48.820;9.226;2023-10-13T10:09:11;30.50;63.20
19864;DHT22;10094;48.820;9.226;2023-10-13T10:16:00;31.00;62.80
19864;DHT22;10094;48.820;9.226;2023-10-13T10:22:57;32.60;61.20
19864;DHT22;10094;48.820;9.226;2023-10-13T10:29:56;32.60;60.70
19864;DHT22;10094;48.820;9.226;2023-10-13T10:36:39;30.60;61.30
19864;DHT22;10094;48.820;9.226;2023-10-13T10:43:28;29.00;62.00
19864;DHT22;10094;48.820;9.226;2023-10-13T10:50:29;28.60;61.90
19864;DHT22;10094;48.820;9.226;2023-10-13T10:57:17;28.10;62.60
19864;DHT22;10094;48.820;9.226;2023-10-13T11:04:01;28.00;62.60
19864;DHT22;10094;48.820;9.226;2023-10-13T11:10:59;27.90;62.50
19864;DHT22;10094;48.820;9.226;2023-10-13T11:17:49;27.70;62.60
19864;DHT22;10094;48.820;9.226;2023-10-13T11:24:42;27.80;63.20
19864;DHT22;10094;48.820;9.226;2023-10-13T11:31:25;28.20;62.90
19864;DHT22;10094;48.820;9.226;2023-10-13T11:38:07;28.30;62.20
19864;DHT22;10094;48.820;9.226;2023-10-13T11:44:57;28.20;62.30
19864;DHT22;10094;48.820;9.226;2023-10-13T11:51:59;28.40;62.70
19864;DHT22;10094;48.820;9.226;2023-10-13T11:58:59;28.70;62.10
19864;DHT22;10094;48.820;9.226;2023-10-13T12:05:43;28.90;62.00
19864;DHT22;10094;48.820;9.226;2023-10-13T12:12:48;28.60;61.80
19864;DHT22;10094;48.820;9.226;2023-10-13T12:19:36;28.50;62.40
19864;DHT22;10094;48.820;9.226;2023-10-13T12:26:21;28.70;62.50
19864;DHT22;10094;48.820;9.226;2023-10-13T12:33:15;28.60;62.30
19864;DHT22;10094;48.820;9.226;2023-10-13T12:40:07;28.50;62.00
19864;DHT22;10094;48.820;9.226;2023-10-13T12:47:09;28.50;61.90
19864;DHT22;10094;48.820;9.226;2023-10-13T12:54:10;28.40;61.60
19864;DHT22;10094;48.820;9.226;2023-10-13T13:01:02;28.80;62.00
19864;DHT22;10094;48.820;9.226;2023-10-13T13:07:51;29.10;61.60
19864;DHT22;10094;48.820;9.226;2023-10-13T13:14:36;29.60;61.40
19864;DHT22;10094;48.820;9.226;2023-10-13T13:21:22;29.60;60.70
19864;DHT22;10094;48.820;9.226;2023-10-13T13:28:09;29.60;61.30
19864;DHT22;10094;48.820;9.226;2023-10-13T13:34:55;29.60;61.00
19864;DHT22;10094;48.820;9.226;2023-10-13T13:41:46;29.60;61.10
19864;DHT22;10094;48.820;9.226;2023-10-13T13:48:32;29.50;60.40
19864;DHT22;10094;48.820;9.226;2023-10-13T13:55:16;29.40;59.70
19864;DHT22;10094;48.820;9.226;2023-10-13T14:02:01;29.20;59.60
19864;DHT22;10094;48.820;9.226;2023-10-13T14:09:03;29.30;58.60
19864;DHT22;10094;48.820;9.226;2023-10-13T14:15:48;29.30;58.40
19864;DHT22;10094;48.820;9.226;2023-10-13T14:22:30;29.20;58.40
19864;DHT22;10094;48.820;9.226;2023-10-13T14:29:19;29.20;58.80
19864;DHT22;10094;48.820;9.226;2023-10-13T14:36:02;29.20;58.50
19864;DHT22;10094;48.820;9.226;2023-10-13T14:42:47;29.10;59.00
19864;DHT22;10094;48.820;9.226;2023-10-13T14:49:30;29.00;58.60
19864;DHT22;10094;48.820;9.226;2023-10-13T14:56:15;28.90;58.60
19864;DHT22;10094;48.820;9.226;2023-10-13T15:02:59;28.80;57.50
19864;DHT22;10094;48.820;9.226;2023-10-13T15:09:46;28.70;57.50
19864;DHT22;10094;48.820;9.226;2023-10-13T15:16:28;28.60;58.10
19864;DHT22;10094;48.820;9.226;2023-10-13T15:23:11;28.40;56.00
19864;DHT22;10094;48.820;9.226;2023-10-13T15:29:57;28.30;55.50
19864;DHT22;10094;48.820;9.226;2023-10-13T15:36:43;28.30;55.60
19864;DHT22;10094;48.820;9.226;2023-10-13T15:43:25;28.20;55.60
19864;DHT22;10094;48.820;9.226;2023-10-13T15:50:14;28.00;56.70
19864;DHT22;10094;48.820;9.226;2023-10-13T15:57:03;27.70;56.10
19864;DHT22;10094;48.820;9.226;2023-10-13T16:03:51;27.60;55.60
19864;DHT22;10094;48.820;9.226;2023-10-13T16:10:34;27.30;55.70
19864;DHT22;10094;48.820;9.226;2023-10-13T16:17:17;27.00;56.20
19864;DHT22;10094;48.820;9.226;2023-10-13T16:24:06;26.70;56.60
19864;DHT22;10094;48.820;9.226;2023-10-13T16:30:53;26.40;57.50
19864;DHT22;10094;48.820;9.226;2023-10-13T16:37:36;26.10;56.70
19864;DHT22;10094;48.820;9.226;2023-10-13T16:44:21;25.80;57.30
19864;DHT22;10094;48.820;9.226;2023-10-13T16:51:04;25.50;57.70
19864;DHT22;10094;48.820;9.226;2023-10-13T16:57:55;25.20;57.90
19864;DHT22;10094;48.820;9.226;2023-10-13T17:04:37;24.90;59.00
19864;DHT22;10094;48.820;9.226;2023-10-13T17:11:20;24.50;59.10
19864;DHT22;10094;48.820;9.226;2023-10-13T17:18:05;24.10;59.80
19864;DHT22;10094;48.820;9.226;2023-10-13T17:24:47;23.80;62.90
19864;DHT22;10094;48.820;9.226;2023-10-13T17:31:31;23.50;62.50
19864;DHT22;10094;48.820;9.226;2023-10-13T17:38:16;23.20;63.40
19864;DHT22;10094;48.820;9.226;2023-10-13T17:44:59;22.80;63.50
19864;DHT22;10094;48.820;9.226;2023-10-13T17:51:42;22.60;65.50
19864;DHT22;10094;48.820;9.226;2023-10-13T17:58:26;22.40;65.70
19864;DHT22;10094;48.820;9.226;2023-10-13T18:05:11;22.40;63.80
19864;DHT22;10094;48.820;9.226;2023-10-13T18:11:53;22.20;66.70
19864;DHT22;10094;48.820;9.226;2023-10-13T18:18:36;22.10;66.50
19864;DHT22;10094;48.820;9.226;2023-10-13T18:25:20;21.90;65.90
19864;DHT22;10094;48.820;9.226;2023-10-13T18:32:06;21.80;65.60
19864;DHT22;10094;48.820;9.226;2023-10-13T18:38:51;21.80;67.50
19864;DHT22;10094;48.820;9.226;2023-10-13T18:45:33;21.60;68.20
19864;DHT22;10094;48.820;9.226;2023-10-13T18:52:16;21.30;69.10
19864;DHT22;10094;48.820;9.226;2023-10-13T18:58:59;21.00;72.60
19864;DHT22;10094;48.820;9.226;2023-10-13T19:05:44;20.90;73.00
19864;DHT22;10094;48.820;9.226;2023-10-13T19:12:26;20.70;77.50
19864;DHT22;10094;48.820;9.226;2023-10-13T19:19:09;20.60;75.30
19864;DHT22;10094;48.820;9.226;2023-10-13T19:25:52;20.50;74.50
19864;DHT22;10094;48.820;9.226;2023-10-13T19:32:40;20.60;74.20
19864;DHT22;10094;48.820;9.226;2023-10-13T19:39:23;20.50;77.20
19864;DHT22;10094;48.820;9.226;2023-10-13T19:46:07;20.50;77.60
19864;DHT22;10094;48.820;9.226;2023-10-13T19:52:51;20.60;76.80
19864;DHT22;10094;48.820;9.226;2023-10-13T19:59:34;20.60;79.70
19864;DHT22;10094;48.820;9.226;2023-10-13T20:06:17;20.70;78.80
19864;DHT22;10094;48.820;9.226;2023-10-13T20:13:04;20.60;78.50
19864;DHT22;10094;48.820;9.226;2023-10-13T20:19:50;20.80;76.30
19864;DHT22;10094;48.820;9.226;2023-10-13T20:26:33;21.00;72.00
19864;DHT22;10094;48.820;9.226;2023-10-13T20:33:25;21.40;71.80
19864;DHT22;10094;48.820;9.226;2023-10-13T20:40:10;21.60;70.90
19864;DHT22;10094;48.820;9.226;2023-10-13T20:47:02;21.80;68.40
19864;DHT22;10094;48.820;9.226;2023-10-13T20:53:49;22.10;67.60
19864;DHT22;10094;48.820;9.226;2023-10-13T21:00:31;22.20;67.30
19864;DHT22;10094;48.820;9.226;2023-10-13T21:07:17;22.30;66.60
19864;DHT22;10094;48.820;9.226;2023-10-13T21:14:03;22.30;66.00
19864;DHT22;10094;48.820;9.226;2023-10-13T21:20:45;22.30;65.50
19864;DHT22;10094;48.820;9.226;2023-10-13T21:27:32;22.30;64.90
19864;DHT22;10094;48.820;9.226;2023-10-13T21:34:14;22.30;64.50
19864;DHT22;10094;48.820;9.226;2023-10-13T21:41:03;22.40;64.10
19864;DHT22;10094;48.820;9.226;2023-10-13T21:47:47;22.40;64.10
19864;DHT22;10094;48.820;9.226;2023-10-13T21:54:31;22.30;64.00
19864;DHT22;10094;48.820;9.226;2023-10-13T22:01:15;22.30;64.00
19864;DHT22;10094;48.820;9.226;2023-10-13T22:08:05;22.30;64.00
19864;DHT22;10094;48.820;9.226;2023-10-13T22:14:47;22.30;64.10
19864;DHT22;10094;48.820;9.226;2023-10-13T22:21:30;22.30;64.30
19864;DHT22;10094;48.820;9.226;2023-10-13T22:28:14;22.30;63.90
19864;DHT22;10094;48.820;9.226;2023-10-13T22:34:57;22.40;64.10
19864;DHT22;10094;48.820;9.226;2023-10-13T22:41:40;22.50;63.90
19864;DHT22;10094;48.820;9.226;2023-10-13T22:48:22;22.50;63.80
19864;DHT22;10094;48.820;9.226;2023-10-13T22:55:07;22.60;63.90
19864;DHT22;10094;48.820;9.226;2023-10-13T23:02:01;22.60;64.30
19864;DHT22;10094;48.820;9.226;2023-10-13T23:08:44;22.70;64.40
19864;DHT22;10094;48.820;9.226;2023-10-13T23:15:30;22.90;64.50
19864;DHT22;10094;48.820;9.226;2023-10-13T23:22:12;23.10;64.80
19864;DHT22;10094;48.820;9.226;2023-10-13T23:28:54;23.00;65.00
19864;DHT22;10094;48.820;9.226;2023-10-13T23:35:38;23.10;65.30
19864;DHT22;10094;48.820;9.226;2023-10-13T23:42:23;23.10;65.60
19864;DHT22;10094;48.820;9.226;2023-10-13T23:49:06;23.10;65.50
19864;DHT22;10094;48.820;9.226;2023-10-13T23:56:08;23.10;65.90
